Airfield :
LOGIN :

Register | Disclaimer

   EN    FR    IT 

 










Legend :    VFR   Marginal VFR   IFR   Intensive IFR   Very Intensive IFR
Visi :
Ceiling :
>= 8 km
>= 3000ft
5 to 8 km
1000 to 3000 ft
1500m to 5 km
500 to 1000 ft
800 to 1500m
200 to 500 ft
< 800m
< 200 ft
Symbols :   Thunderstorms  Fog  Heavy snow  Heavy precipitations  Wind > 20 kt
SIGMETs :     Misc.  Thunderstorms  Icing  Turbulence  Mountain Waves  Volcanic Ashes






- Airport Elevation : 1649 ft
- IATA code : HHN


EDFH - Frankfurt-Hahn Rhineland-Palatinate

CURRENT METAR :
  • 050020Z 31004KT 280V340 2000 BR BKN003 01/01 Q1019

EXPIRED METARs :
  • 042350Z 32005KT 280V340 5000 BR SCT003 BKN008 01/01 Q1019
  • 042320Z 32007KT 5000 BR BKN004 01/00 Q1019
  • 042250Z 33009KT 6000 BKN005 01/00 Q1018
  • 042220Z 34009KT 7000 BKN004 01/01 Q1018
  • 042150Z 32009KT 9999 BKN005 01/01 Q1018

TAF TAF EDFH
Valid from the 05 at 00:00 until the 06 at 00:00 UTC


042300Z 0500/0524 32008KT 8000 BKN015
TEMPO 0500/0506 4000 -RA BR BKN004
BECMG 0506/0508 02008KT
TEMPO 0506/0509 BKN008



MET'MAP, your aeronautical weather chart ! - Copyright ORBIFLY December 2007 - Disclaimer

ORBIFLY MET'MAP TEAM :

Programming & Development : Alexandra Zaïnal
Concept & original design : Baudouin d'Aumeries
Assistance for programming : Marc-Olivier Méhu
Technical & hardware support : Manuel Goepfert

Contact : metmap@orbifly.com




SOURCES & CREDITS :

   NOAA